METAR Data
IDs: Format: Raw Decoded Include TAF

Data at: 2058 UTC 18 Sep 2018

KSMO 182051Z 23008KT 10SM CLR 24/14 A2985 RMK AO2 SLP107 T02440144 58015
KSMO 181951Z 25008KT 10SM CLR 24/15 A2987 RMK AO2 SLP113 T02440150
KSMO 181851Z 21007KT 10SM CLR 26/15 A2988 RMK AO2 SLP117 T02560150
KSMO 181751Z 13003KT 10SM CLR 26/13 A2990 RMK AO2 SLP122 T02560133 10261 20161 58003
KSMO 181651Z 10006KT 10SM CLR 24/12 A2990 RMK AO2 SLP124 T02390117
KSMO 181551Z 08004KT 10SM CLR 22/13 A2991 RMK AO2 SLP125 T02220133
KSMO 181451Z 04003KT 10SM CLR 19/11 A2990 RMK AO2 SLP124 T01940106 53011
KSMO 181351Z 07003KT 10SM CLR 17/09 A2988 RMK AO2 SLP117 T01670094
KSMO 181251Z AUTO 01003KT 10SM CLR 17/11 A2987 RMK AO2 SLP114 T01670106
KSMO 181151Z AUTO 00000KT 10SM CLR 17/11 A2987 RMK AO2 SLP113 T01670106 10200 20167 55005
KSMO 181051Z AUTO 36003KT 10SM CLR 17/12 A2986 RMK AO2 SLP111 T01720122
KSMO 180951Z AUTO 35003KT 10SM CLR 18/12 A2987 RMK AO2 SLP113 T01830122
KSMO 180851Z AUTO 00000KT 10SM CLR 18/13 A2989 RMK AO2 SLP118 T01830133 51005
KSMO 180751Z AUTO 04003KT 10SM CLR 19/14 A2988 RMK AO2 SLP118 T01890144 402670161
KSMO 180651Z AUTO 05003KT 10SM CLR 19/14 A2988 RMK AO2 SLP117 T01940144
KSMO 180551Z AUTO 00000KT 10SM CLR 20/15 A2987 RMK AO2 SLP113 T02000150 10239 20194 51008
KSMO 180451Z AUTO 08003KT 10SM CLR 20/16 A2986 RMK AO2 SLP111 T02000156
KSMO 180351Z AUTO 00000KT 10SM CLR 21/16 A2986 RMK AO2 SLP109 T02110161 TSNO
KSMO 180251Z 15003KT 10SM CLR 21/16 A2984 RMK AO2 SLP104 T02110156 55002
KSMO 180151Z 23003KT 10SM CLR 22/14 A2984 RMK AO2 SLP102 T02220144
KSMO 180051Z 24007KT 10SM CLR 23/14 A2984 RMK AO2 SLP103 T02280144
KSMO 172351Z 24009KT 10SM CLR 24/14 A2985 RMK AO2 SLP106 T02390144 10267 20239 56012
KSMO 172251Z AUTO 24010KT 10SM CLR 25/13 A2986 RMK AO2 SLP110 T02500133
KSMO 172151Z 24007KT 10SM CLR 27/11 A2987 RMK AO2 SLP112 T02670106
KSMO 172051Z 23008KT 10SM CLR 27/13 A2989 RMK AO2 SLP118 T02670128 58011
KSMO 171951Z 24007KT 10SM CLR 26/14 A2991 RMK AO2 SLP125 T02610144
KSMO 171851Z COR 22006KT 10SM CLR 26/13 A2991 RMK AO2 SLP128 T02560133
KSMO 171751Z 20006KT 10SM CLR 26/13 A2992 RMK AO2 SLP129 T02610133 10261 20161 51003
KSMO 171651Z 19003KT 10SM CLR 25/11 A2992 RMK AO2 SLP129 T02500111
KSMO 171551Z 00000KT 10SM CLR 23/11 A2992 RMK AO2 SLP128 T02280111
KSMO 171451Z 00000KT 10SM CLR 21/11 A2991 RMK AO2 SLP126 T02060106 53009
KSMO 171351Z 35003KT 10SM CLR 17/11 A2990 RMK AO2 SLP123 T01670106
KSMO 171251Z AUTO 00000KT 10SM CLR 17/11 A2989 RMK AO2 SLP118 T01720111
KSMO 171151Z AUTO 34003KT 10SM CLR 18/10 A2988 RMK AO2 SLP116 T01780100 10200 20178 56002
KSMO 171051Z AUTO 35003KT 10SM CLR 18/11 A2988 RMK AO2 SLP116 T01830111
KSMO 170951Z AUTO 36003KT 10SM CLR 18/13 A2989 RMK AO2 SLP119 T01780128